Time;durP1;ratioP1;P1;durP2;ratioP2;P2;SDS_P1;SDS_P2;PMS_P1;PMS_P2;Temp;Humidity;BMP_temperature;BMP_pressure;BME280_temperature;BME280_humidity;BME280_pressure;Samples;Min_cycle;Max_cycle;Signal;HPM_P1;HPM_P2
2023/06/26 00:01:29;;;;;;;8.57;5.60;;;;;;;;;;5011418;28;20026;-76
2023/06/26 00:03:55;;;;;;;7.43;5.15;;;;;;;;;;5012165;28;20033;-79
2023/06/26 00:06:24;;;;;;;8.43;5.50;;;;;;;;;;5011719;28;20037;-78
2023/06/26 00:08:50;;;;;;;6.25;5.55;;;;;;;;;;4996389;28;20038;-77
2023/06/26 00:11:15;;;;;;;8.52;5.15;;;;;;;;;;5012965;28;20497;-79
2023/06/26 00:13:41;;;;;;;7.63;5.32;;;;;;;;;;5011864;28;20026;-77
2023/06/26 00:16:07;;;;;;;6.18;5.03;;;;;;;;;;5011740;28;20076;-76
2023/06/26 00:18:32;;;;;;;9.48;5.97;;;;;;;;;;5011520;28;20026;-77
2023/06/26 00:20:58;;;;;;;9.13;5.32;;;;;;;;;;5013046;28;20037;-76
2023/06/26 00:23:23;;;;;;;8.38;5.72;;;;;;;;;;5011351;28;20044;-77
2023/06/26 00:25:49;;;;;;;8.10;5.00;;;;;;;;;;5012777;28;20485;-79
2023/06/26 00:28:14;;;;;;;9.63;5.10;;;;;;;;;;5013504;28;20033;-77
2023/06/26 00:30:40;;;;;;;7.82;5.22;;;;;;;;;;5013289;28;20029;-77
2023/06/26 00:33:05;;;;;;;7.32;5.50;;;;;;;;;;5012521;28;20057;-78
2023/06/26 00:35:31;;;;;;;6.95;5.53;;;;;;;;;;5010743;28;20036;-76
2023/06/26 00:37:56;;;;;;;12.60;6.90;;;;;;;;;;5011191;28;20026;-78
2023/06/26 00:40:22;;;;;;;10.25;5.97;;;;;;;;;;5010528;28;20080;-77
2023/06/26 00:42:47;;;;;;;8.18;5.35;;;;;;;;;;5012350;28;20109;-77
2023/06/26 00:45:13;;;;;;;8.18;5.22;;;;;;;;;;5011287;28;20034;-77
2023/06/26 00:47:39;;;;;;;7.43;5.30;;;;;;;;;;5012030;28;20117;-77
2023/06/26 00:50:05;;;;;;;7.40;5.28;;;;;;;;;;5010826;28;20115;-78
2023/06/26 00:52:31;;;;;;;16.92;5.50;;;;;;;;;;5010256;28;20041;-77
2023/06/26 00:54:57;;;;;;;8.10;5.18;;;;;;;;;;5011894;28;20385;-77
2023/06/26 00:57:24;;;;;;;8.30;5.25;;;;;;;;;;5012254;28;20030;-77
2023/06/26 00:59:50;;;;;;;8.45;5.63;;;;;;;;;;5011878;28;20049;-77
2023/06/26 01:02:19;;;;;;;7.50;5.75;;;;;;;;;;5012030;28;20319;-77
2023/06/26 01:04:50;;;;;;;8.88;5.38;;;;;;;;;;5010557;28;20029;-77
2023/06/26 01:07:18;;;;;;;9.57;6.30;;;;;;;;;;5011164;28;20390;-76
2023/06/26 01:09:46;;;;;;;8.63;5.20;;;;;;;;;;5011066;28;20033;-76
2023/06/26 01:12:11;;;;;;;9.05;5.75;;;;;;;;;;5011621;28;20029;-77
2023/06/26 01:14:37;;;;;;;7.63;5.43;;;;;;;;;;5010594;28;20104;-78
2023/06/26 01:17:04;;;;;;;8.48;5.43;;;;;;;;;;5010429;28;20025;-77
2023/06/26 01:19:31;;;;;;;11.68;5.70;;;;;;;;;;5011356;28;20038;-76
2023/06/26 01:22:15;;;;;;;18.67;5.95;;;;;;;;;;5012023;28;20132;-77
2023/06/26 01:24:52;;;;;;;8.27;6.10;;;;;;;;;;5011082;28;20101;-76
2023/06/26 01:27:21;;;;;;;11.20;5.75;;;;;;;;;;5011372;28;20044;-77
2023/06/26 01:29:49;;;;;;;9.18;5.57;;;;;;;;;;5009368;28;20096;-76
2023/06/26 01:32:14;;;;;;;11.27;6.47;;;;;;;;;;5009911;28;20034;-77
2023/06/26 01:34:40;;;;;;;10.50;5.80;;;;;;;;;;5011880;28;20025;-78
2023/06/26 01:37:05;;;;;;;8.27;5.93;;;;;;;;;;5010093;28;20052;-78
2023/06/26 01:39:31;;;;;;;6.85;4.90;;;;;;;;;;5010874;28;20485;-78
2023/06/26 01:41:57;;;;;;;9.35;5.60;;;;;;;;;;5011353;28;20026;-78
2023/06/26 01:44:29;;;;;;;9.60;6.00;;;;;;;;;;5009414;28;20037;-78
2023/06/26 01:47:04;;;;;;;9.15;5.35;;;;;;;;;;5010873;28;20068;-78
2023/06/26 01:49:51;;;;;;;8.00;5.63;;;;;;;;;;4993423;28;20038;-78
2023/06/26 01:52:42;;;;;;;9.27;5.57;;;;;;;;;;5067949;28;20376;-77
2023/06/26 01:55:20;;;;;;;8.75;5.30;;;;;;;;;;5065859;28;20056;-78
2023/06/26 01:57:47;;;;;;;7.20;5.18;;;;;;;;;;5067421;28;20105;-78
2023/06/26 02:00:17;;;;;;;8.60;5.10;;;;;;;;;;5067009;28;20032;-78
2023/06/26 02:02:44;;;;;;;6.55;5.13;;;;;;;;;;5065668;28;20043;-78
2023/06/26 02:05:09;;;;;;;7.47;5.20;;;;;;;;;;5076360;28;20323;-78
2023/06/26 02:07:35;;;;;;;7.93;5.65;;;;;;;;;;5086333;28;20097;-79
2023/06/26 02:10:01;;;;;;;9.45;6.35;;;;;;;;;;5087344;28;20040;-78
2023/06/26 02:12:26;;;;;;;7.75;5.25;;;;;;;;;;5085528;28;20054;-78
2023/06/26 02:14:52;;;;;;;8.88;5.75;;;;;;;;;;5079361;28;20017;-77
2023/06/26 02:17:17;;;;;;;12.05;5.88;;;;;;;;;;5064702;28;20033;-77
2023/06/26 02:19:47;;;;;;;7.80;5.43;;;;;;;;;;5065702;28;20555;-77
2023/06/26 02:22:14;;;;;;;8.55;5.70;;;;;;;;;;5065807;28;20028;-77
2023/06/26 02:24:40;;;;;;;8.35;4.80;;;;;;;;;;5066648;28;20545;-77
2023/06/26 02:27:05;;;;;;;8.85;5.43;;;;;;;;;;5067123;28;20025;-75
2023/06/26 02:29:31;;;;;;;8.93;6.18;;;;;;;;;;5070362;28;20483;-78
2023/06/26 02:31:56;;;;;;;7.78;5.07;;;;;;;;;;5080638;28;20027;-77
2023/06/26 02:34:21;;;;;;;6.75;4.82;;;;;;;;;;5067082;28;20032;-77
2023/06/26 02:36:47;;;;;;;6.93;5.40;;;;;;;;;;5086901;28;20213;-78
2023/06/26 02:39:14;;;;;;;7.85;5.20;;;;;;;;;;5085586;28;20122;-78
2023/06/26 02:41:39;;;;;;;8.10;4.85;;;;;;;;;;5066558;28;20017;-77
2023/06/26 02:44:06;;;;;;;8.88;5.70;;;;;;;;;;5066226;28;20107;-77
2023/06/26 02:46:31;;;;;;;9.63;5.68;;;;;;;;;;5084266;28;20028;-78
2023/06/26 02:48:57;;;;;;;7.93;5.30;;;;;;;;;;5065390;28;20028;-77
2023/06/26 02:51:22;;;;;;;7.60;5.30;;;;;;;;;;5084267;28;20137;-77
2023/06/26 02:53:48;;;;;;;12.35;5.78;;;;;;;;;;5088023;28;20391;-77
2023/06/26 02:56:13;;;;;;;8.88;5.30;;;;;;;;;;5085213;28;20036;-78
2023/06/26 02:58:39;;;;;;;6.68;5.13;;;;;;;;;;5084676;28;20024;-77
2023/06/26 03:01:04;;;;;;;13.25;5.60;;;;;;;;;;5071492;28;20028;-76
2023/06/26 03:03:29;;;;;;;11.05;5.75;;;;;;;;;;5052633;28;20032;-76
2023/06/26 03:05:55;;;;;;;7.68;5.38;;;;;;;;;;5065213;28;20071;-77
2023/06/26 03:08:20;;;;;;;9.00;5.50;;;;;;;;;;5072750;28;20070;-79
2023/06/26 03:10:46;;;;;;;13.52;6.63;;;;;;;;;;5071890;28;20036;-76
2023/06/26 03:13:11;;;;;;;9.68;5.65;;;;;;;;;;5071942;28;20078;-77
2023/06/26 03:15:37;;;;;;;10.65;5.78;;;;;;;;;;5072112;28;20472;-78
2023/06/26 03:18:02;;;;;;;7.60;5.90;;;;;;;;;;5058195;28;20039;-78
2023/06/26 03:20:28;;;;;;;16.50;6.30;;;;;;;;;;5062108;28;20064;-78
2023/06/26 03:22:53;;;;;;;12.40;6.10;;;;;;;;;;5073378;28;20150;-76
2023/06/26 03:25:19;;;;;;;9.07;5.68;;;;;;;;;;5060365;28;20476;-79
2023/06/26 03:27:44;;;;;;;11.23;5.93;;;;;;;;;;5066601;28;20049;-78
2023/06/26 03:30:11;;;;;;;10.98;5.72;;;;;;;;;;5058012;28;20031;-77
2023/06/26 03:32:36;;;;;;;10.30;5.60;;;;;;;;;;5051218;28;20038;-76
2023/06/26 03:35:03;;;;;;;7.50;5.50;;;;;;;;;;5064141;28;20036;-78
2023/06/26 03:37:28;;;;;;;7.03;5.43;;;;;;;;;;5051341;28;20036;-75
2023/06/26 03:39:54;;;;;;;10.48;5.65;;;;;;;;;;5051389;28;20028;-77
2023/06/26 03:42:19;;;;;;;12.05;6.32;;;;;;;;;;5051193;28;20457;-79
2023/06/26 03:44:45;;;;;;;10.70;5.88;;;;;;;;;;5052903;28;20468;-76
2023/06/26 03:47:10;;;;;;;8.60;5.47;;;;;;;;;;5045558;28;20505;-75
2023/06/26 03:49:36;;;;;;;6.80;5.55;;;;;;;;;;5031193;28;20033;-78
2023/06/26 03:52:03;;;;;;;7.00;5.32;;;;;;;;;;5071935;28;20377;-77
2023/06/26 03:54:28;;;;;;;10.10;5.10;;;;;;;;;;5072445;28;20377;-77
2023/06/26 03:56:54;;;;;;;7.43;5.30;;;;;;;;;;5054191;28;20040;-78
2023/06/26 03:59:20;;;;;;;7.97;6.43;;;;;;;;;;5050992;28;20056;-78
2023/06/26 04:01:46;;;;;;;9.82;5.70;;;;;;;;;;5051056;28;20079;-77
2023/06/26 04:04:11;;;;;;;8.57;5.75;;;;;;;;;;5050869;28;20117;-77
2023/06/26 04:06:37;;;;;;;7.57;5.55;;;;;;;;;;5067657;28;20035;-77
2023/06/26 04:09:03;;;;;;;12.50;6.13;;;;;;;;;;5070057;28;20026;-78
2023/06/26 04:11:28;;;;;;;11.07;6.10;;;;;;;;;;5071582;28;20433;-77
2023/06/26 04:13:54;;;;;;;11.85;5.63;;;;;;;;;;5071414;28;20028;-77
2023/06/26 04:16:21;;;;;;;7.45;5.35;;;;;;;;;;5071071;28;20032;-77
2023/06/26 04:18:46;;;;;;;8.13;5.97;;;;;;;;;;5032426;28;20029;-77
2023/06/26 04:21:13;;;;;;;13.13;6.07;;;;;;;;;;5031735;28;20036;-77
2023/06/26 04:23:41;;;;;;;10.52;5.55;;;;;;;;;;5029933;28;20029;-77
2023/06/26 04:26:08;;;;;;;8.82;5.88;;;;;;;;;;5042744;28;20032;-77
2023/06/26 04:28:34;;;;;;;10.68;5.40;;;;;;;;;;5050330;28;20037;-78
2023/06/26 04:31:01;;;;;;;7.90;5.63;;;;;;;;;;5050113;28;20036;-78
2023/06/26 04:33:27;;;;;;;8.00;6.80;;;;;;;;;;5034361;28;20064;-79
2023/06/26 04:35:53;;;;;;;9.68;5.75;;;;;;;;;;5029763;28;20021;-79
2023/06/26 04:38:21;;;;;;;9.50;5.88;;;;;;;;;;5030214;28;20026;-77
2023/06/26 04:40:49;;;;;;;10.30;5.82;;;;;;;;;;5050841;28;20462;-80
2023/06/26 04:43:15;;;;;;;11.45;5.97;;;;;;;;;;5049554;28;20388;-78
2023/06/26 04:45:41;;;;;;;8.50;5.25;;;;;;;;;;5050984;28;20021;-77
2023/06/26 04:48:06;;;;;;;7.88;5.68;;;;;;;;;;5049456;28;20025;-76
2023/06/26 04:50:33;;;;;;;8.65;4.90;;;;;;;;;;5067437;28;20052;-76
2023/06/26 04:52:59;;;;;;;10.35;5.50;;;;;;;;;;5071707;28;20395;-78
2023/06/26 04:55:25;;;;;;;9.65;6.40;;;;;;;;;;5070975;28;20028;-78
2023/06/26 04:57:51;;;;;;;8.02;5.85;;;;;;;;;;5071254;28;20020;-77
2023/06/26 05:00:17;;;;;;;7.72;5.43;;;;;;;;;;5070065;28;20039;-78
2023/06/26 05:02:42;;;;;;;10.52;6.07;;;;;;;;;;5058035;28;20187;-78
2023/06/26 05:05:08;;;;;;;7.13;5.38;;;;;;;;;;5064051;28;20119;-78
2023/06/26 05:07:34;;;;;;;12.10;6.03;;;;;;;;;;5070425;28;20499;-78
2023/06/26 05:09:59;;;;;;;7.45;5.32;;;;;;;;;;5055874;28;20097;-78
2023/06/26 05:12:25;;;;;;;7.40;5.40;;;;;;;;;;5034764;28;20044;-79
2023/06/26 05:14:50;;;;;;;11.50;6.22;;;;;;;;;;5036732;28;20029;-77
2023/06/26 05:17:16;;;;;;;7.88;5.55;;;;;;;;;;5039844;28;20179;-78
2023/06/26 05:19:41;;;;;;;10.30;6.95;;;;;;;;;;5049404;28;20154;-78
2023/06/26 05:22:07;;;;;;;15.35;6.70;;;;;;;;;;5030280;28;20067;-79
2023/06/26 05:24:38;;;;;;;11.13;6.30;;;;;;;;;;5047770;28;20040;-78
2023/06/26 05:27:06;;;;;;;13.30;6.45;;;;;;;;;;5047433;28;20063;-75
2023/06/26 05:29:32;;;;;;;10.07;6.63;;;;;;;;;;5055137;28;20036;-78
2023/06/26 05:31:59;;;;;;;9.50;6.32;;;;;;;;;;5027971;28;20195;-77
2023/06/26 05:34:28;;;;;;;10.18;6.20;;;;;;;;;;5044660;28;20029;-77
2023/06/26 05:36:58;;;;;;;9.75;6.53;;;;;;;;;;5045513;28;20029;-78
2023/06/26 05:39:25;;;;;;;10.38;6.13;;;;;;;;;;5044882;28;20021;-78
2023/06/26 05:41:51;;;;;;;12.77;6.32;;;;;;;;;;5045079;28;20457;-79
2023/06/26 05:44:17;;;;;;;7.10;5.88;;;;;;;;;;5044344;28;20384;-75
2023/06/26 05:46:43;;;;;;;9.70;6.07;;;;;;;;;;5045835;28;20032;-77
2023/06/26 05:49:08;;;;;;;10.00;6.05;;;;;;;;;;5042053;28;20021;-78
2023/06/26 05:51:34;;;;;;;9.73;6.53;;;;;;;;;;5044966;28;20056;-78
2023/06/26 05:54:00;;;;;;;9.38;6.03;;;;;;;;;;5049942;28;20395;-78
2023/06/26 05:56:26;;;;;;;12.88;6.00;;;;;;;;;;5049966;28;20033;-78
2023/06/26 05:58:53;;;;;;;7.53;5.57;;;;;;;;;;5051022;28;20025;-76
2023/06/26 06:01:19;;;;;;;12.15;6.55;;;;;;;;;;5034132;28;20079;-75
2023/06/26 06:03:52;;;;;;;7.53;5.50;;;;;;;;;;5050728;28;20345;-78
2023/06/26 06:18:07;;;;;;;;;;;;;;;;;;;;;
2023/06/26 06:24:27;;;;;;;9.82;5.05;;;;;;;;;;5049282;28;20033;-80
2023/06/26 06:37:31;;;;;;;;;;;;;;;;;;;;;
2023/06/26 06:43:37;;;;;;;;;;;;;;;;;;;;;
2023/06/26 06:46:28;;;;;;;;;;;;;;;;;;;;;
2023/06/26 06:52:32;;;;;;;;;;;;;;;;;;;;;
2023/06/26 07:02:33;;;;;;;6.75;4.47;;;;;;;;;;5032800;28;20048;-81
2023/06/26 07:06:02;;;;;;;8.57;4.00;;;;;;;;;;5004368;28;20116;-79
2023/06/26 07:16:53;;;;;;;;;;;;;;;;;;;;;
2023/06/26 07:27:12;;;;;;;;;;;;;;;;;;;;;
2023/06/26 07:30:28;;;;;;;4.80;3.92;;;;;;;;;;4875844;29;20072;-81
2023/06/26 07:37:13;;;;;;;5.43;4.10;;;;;;;;;;4952045;28;20105;-82
2023/06/26 07:40:24;;;;;;;;;;;;;;;;;;;;;
2023/06/26 07:43:30;;;;;;;;;;;;;;;;;;;;;
2023/06/26 07:46:47;;;;;;;5.25;3.75;;;;;;;;;;5016676;28;20114;-79
2023/06/26 07:49:53;;;;;;;;;;;;;;;;;;;;;
2023/06/26 07:52:53;;;;;;;;;;;;;;;;;;;;;
2023/06/26 07:56:19;;;;;;;;;;;;;;;;;;;;;
2023/06/26 07:58:46;;;;;;;6.80;3.83;;;;;;;;;;4976349;28;20064;-78
2023/06/26 08:01:38;;;;;;;9.23;5.40;;;;;;;;;;4973947;28;20572;-81
2023/06/26 08:08:22;;;;;;;9.27;4.38;;;;;;;;;;4998198;28;20068;-80
2023/06/26 08:10:51;;;;;;;5.97;4.53;;;;;;;;;;4974846;28;21344;-79
2023/06/26 08:14:32;;;;;;;6.68;4.68;;;;;;;;;;5015023;28;20058;-78
2023/06/26 08:17:43;;;;;;;6.28;4.00;;;;;;;;;;5001722;28;20397;-78
2023/06/26 08:24:00;;;;;;;6.53;4.22;;;;;;;;;;5032826;28;20060;-78
2023/06/26 08:31:03;;;;;;;8.60;4.75;;;;;;;;;;5010928;28;20052;-81
2023/06/26 08:34:11;;;;;;;6.30;4.60;;;;;;;;;;4978725;28;20045;-81
2023/06/26 08:37:54;;;;;;;;;;;;;;;;;;;;;
2023/06/26 08:40:44;;;;;;;8.07;4.35;;;;;;;;;;4893711;29;20486;-80
2023/06/26 08:51:12;;;;;;;7.70;4.78;;;;;;;;;;4944500;29;20051;-83
2023/06/26 08:54:52;;;;;;;;;;;;;;;;;;;;;
2023/06/26 09:08:30;;;;;;;6.57;5.18;;;;;;;;;;4882497;29;20104;-81
2023/06/26 09:15:08;;;;;;;;;;;;;;;;;;;;;
2023/06/26 09:17:43;;;;;;;6.40;4.15;;;;;;;;;;4879363;29;20135;-78
2023/06/26 09:21:02;;;;;;;5.32;4.40;;;;;;;;;;4955434;28;20038;-81
2023/06/26 09:23:48;;;;;;;4.75;4.18;;;;;;;;;;5007662;28;20045;-77
2023/06/26 09:33:49;;;;;;;7.43;5.05;;;;;;;;;;4938368;29;20140;-80
2023/06/26 09:36:52;;;;;;;;;;;;;;;;;;;;;
2023/06/26 09:43:05;;;;;;;6.15;4.47;;;;;;;;;;4941099;28;20473;-80
2023/06/26 09:45:48;;;;;;;6.72;4.20;;;;;;;;;;4995842;28;20030;-81
2023/06/26 09:48:27;;;;;;;10.88;4.15;;;;;;;;;;4975466;28;20029;-81
2023/06/26 09:51:02;;;;;;;7.28;4.43;;;;;;;;;;5042800;28;20098;-79
2023/06/26 09:56:35;;;;;;;5.10;4.43;;;;;;;;;;5063430;28;20044;-77
2023/06/26 10:00:17;;;;;;;7.05;4.40;;;;;;;;;;5093967;28;20205;-78
2023/06/26 10:03:01;;;;;;;8.90;4.50;;;;;;;;;;4973271;28;20128;-79
2023/06/26 10:12:30;;;;;;;5.80;4.15;;;;;;;;;;4969084;28;20132;-78
2023/06/26 10:14:57;;;;;;;7.05;5.72;;;;;;;;;;4982101;28;20857;-78
2023/06/26 10:17:28;;;;;;;5.45;4.57;;;;;;;;;;4986584;28;20034;-74
2023/06/26 10:19:56;;;;;;;5.68;4.53;;;;;;;;;;5042971;28;20063;-78
2023/06/26 10:22:27;;;;;;;6.68;5.05;;;;;;;;;;5083498;28;20335;-78
2023/06/26 10:24:58;;;;;;;8.35;4.13;;;;;;;;;;5079571;28;20391;-78
2023/06/26 10:27:27;;;;;;;9.20;5.10;;;;;;;;;;5082117;28;20448;-76
2023/06/26 10:29:57;;;;;;;7.88;4.80;;;;;;;;;;5081776;28;20073;-76
2023/06/26 10:32:25;;;;;;;5.60;4.50;;;;;;;;;;5080454;28;20021;-77
2023/06/26 10:34:52;;;;;;;5.88;4.28;;;;;;;;;;5086273;28;20074;-78
2023/06/26 10:37:18;;;;;;;11.32;5.45;;;;;;;;;;5054979;28;20533;-76
2023/06/26 10:39:51;;;;;;;8.32;5.40;;;;;;;;;;5044018;28;20043;-78
2023/06/26 10:42:18;;;;;;;6.50;4.47;;;;;;;;;;5077304;28;20026;-76
2023/06/26 10:44:46;;;;;;;11.00;5.35;;;;;;;;;;5080453;28;20024;-78
2023/06/26 10:47:31;;;;;;;7.75;4.70;;;;;;;;;;5060602;28;20065;-77
2023/06/26 10:50:20;;;;;;;4.75;4.13;;;;;;;;;;5074532;28;20424;-76
2023/06/26 10:52:46;;;;;;;6.45;4.75;;;;;;;;;;5066396;28;20116;-76
2023/06/26 10:55:15;;;;;;;6.95;4.57;;;;;;;;;;5082398;28;20065;-80
2023/06/26 10:57:46;;;;;;;9.98;5.47;;;;;;;;;;5073817;28;20079;-80
2023/06/26 11:00:14;;;;;;;;;;;;;;;;;;5082578;28;20440;-83
2023/06/26 11:02:53;;;;;;;7.00;4.78;;;;;;;;;;5065515;28;19927;-79
2023/06/26 11:05:35;;;;;;;5.80;4.15;;;;;;;;;;5083002;28;21248;-78
2023/06/26 11:08:08;;;;;;;9.52;5.28;;;;;;;;;;5080192;28;20058;-76
2023/06/26 11:10:54;;;;;;;5.70;4.65;;;;;;;;;;5078181;28;20032;-78
2023/06/26 11:13:20;;;;;;;7.43;5.43;;;;;;;;;;5076956;28;20058;-81
2023/06/26 11:15:48;;;;;;;5.88;4.03;;;;;;;;;;5081173;28;20082;-79
2023/06/26 11:18:14;;;;;;;7.13;4.60;;;;;;;;;;5079097;28;20093;-79
2023/06/26 11:20:41;;;;;;;6.22;4.80;;;;;;;;;;5082530;28;20031;-78
2023/06/26 11:23:12;;;;;;;7.57;4.40;;;;;;;;;;5079564;28;20421;-79
2023/06/26 11:25:38;;;;;;;6.80;4.07;;;;;;;;;;5068758;28;20843;-78
2023/06/26 11:28:08;;;;;;;7.07;4.38;;;;;;;;;;5068358;28;20035;-80
2023/06/26 11:30:37;;;;;;;6.93;4.35;;;;;;;;;;5085400;28;20098;-79
2023/06/26 11:33:10;;;;;;;6.53;4.03;;;;;;;;;;5081387;28;20032;-84
2023/06/26 11:35:38;;;;;;;7.97;4.82;;;;;;;;;;5077273;28;20161;-81
2023/06/26 11:38:04;;;;;;;7.07;4.60;;;;;;;;;;5062475;28;20028;-79
2023/06/26 11:40:35;;;;;;;6.25;4.53;;;;;;;;;;5077573;28;20675;-76
2023/06/26 11:43:04;;;;;;;5.90;4.55;;;;;;;;;;5076268;28;20046;-77
2023/06/26 11:45:32;;;;;;;6.73;4.70;;;;;;;;;;5066480;28;20067;-80
2023/06/26 11:48:01;;;;;;;6.43;4.43;;;;;;;;;;5095274;28;20051;-78
2023/06/26 11:50:27;;;;;;;7.50;3.88;;;;;;;;;;5093691;28;20826;-79
2023/06/26 11:52:58;;;;;;;5.70;4.22;;;;;;;;;;5093582;28;20026;-76
2023/06/26 11:55:26;;;;;;;6.03;3.88;;;;;;;;;;5095051;28;20046;-77
2023/06/26 11:57:54;;;;;;;7.07;3.80;;;;;;;;;;5098513;28;20058;-78
2023/06/26 12:00:21;;;;;;;5.50;4.47;;;;;;;;;;5096105;28;20031;-78
2023/06/26 12:02:47;;;;;;;5.97;4.18;;;;;;;;;;5093593;28;20040;-79
2023/06/26 12:05:18;;;;;;;6.63;3.92;;;;;;;;;;5095286;28;20028;-80
2023/06/26 12:07:47;;;;;;;5.35;4.05;;;;;;;;;;5094984;28;20016;-77
2023/06/26 12:10:15;;;;;;;5.65;4.28;;;;;;;;;;5079549;28;20047;-80
2023/06/26 12:12:41;;;;;;;5.70;3.97;;;;;;;;;;5081330;28;20096;-79
2023/06/26 12:15:11;;;;;;;5.40;4.07;;;;;;;;;;5080911;28;20050;-79
2023/06/26 12:17:39;;;;;;;6.10;4.25;;;;;;;;;;5097104;28;20023;-78
2023/06/26 12:20:16;;;;;;;5.72;4.20;;;;;;;;;;5096169;28;20028;-79
2023/06/26 12:22:43;;;;;;;4.88;4.05;;;;;;;;;;5095311;28;20039;-76
2023/06/26 12:25:08;;;;;;;13.25;5.13;;;;;;;;;;5098752;28;20043;-81
2023/06/26 12:27:40;;;;;;;6.88;3.97;;;;;;;;;;5095050;28;20031;-80
2023/06/26 12:30:12;;;;;;;4.72;4.07;;;;;;;;;;5102569;28;20042;-79
2023/06/26 12:32:41;;;;;;;6.75;5.00;;;;;;;;;;5096221;28;20016;-77
2023/06/26 12:35:12;;;;;;;8.30;4.78;;;;;;;;;;5095988;28;20163;-78
2023/06/26 12:37:40;;;;;;;5.75;5.10;;;;;;;;;;5089280;28;20094;-78
2023/06/26 12:40:21;;;;;;;8.02;4.47;;;;;;;;;;5093952;28;20046;-78
2023/06/26 12:42:48;;;;;;;5.15;4.20;;;;;;;;;;5090644;28;20035;-81
2023/06/26 12:45:15;;;;;;;4.60;4.10;;;;;;;;;;5089485;28;20047;-78
2023/06/26 12:47:42;;;;;;;7.88;4.78;;;;;;;;;;5078847;28;20028;-79
2023/06/26 12:50:08;;;;;;;6.50;4.10;;;;;;;;;;5072545;28;20221;-83
2023/06/26 12:52:33;;;;;;;8.80;4.70;;;;;;;;;;5073514;28;20020;-79
2023/06/26 12:55:01;;;;;;;5.20;4.22;;;;;;;;;;5082023;28;20076;-80
2023/06/26 12:57:28;;;;;;;5.70;4.47;;;;;;;;;;5077672;28;20043;-77
2023/06/26 12:59:54;;;;;;;5.35;4.32;;;;;;;;;;5082439;28;20044;-80
2023/06/26 13:02:23;;;;;;;5.90;4.00;;;;;;;;;;5078034;28;21240;-80
2023/06/26 13:04:49;;;;;;;5.70;4.40;;;;;;;;;;5077150;28;20030;-78
2023/06/26 13:07:15;;;;;;;9.45;4.82;;;;;;;;;;5079621;28;20032;-80
2023/06/26 13:09:41;;;;;;;4.68;3.80;;;;;;;;;;5064184;28;20123;-80
2023/06/26 13:12:07;;;;;;;5.28;4.10;;;;;;;;;;5032978;28;20057;-80
2023/06/26 13:14:34;;;;;;;10.63;5.25;;;;;;;;;;5026971;28;20471;-80
2023/06/26 13:17:02;;;;;;;8.70;4.40;;;;;;;;;;5027275;28;20036;-80
2023/06/26 13:19:32;;;;;;;5.50;4.55;;;;;;;;;;5026218;28;20041;-81
2023/06/26 13:21:58;;;;;;;7.38;4.78;;;;;;;;;;5024007;28;20116;-79
2023/06/26 13:24:25;;;;;;;9.05;4.70;;;;;;;;;;5012519;28;20032;-80
2023/06/26 13:26:50;;;;;;;4.88;4.22;;;;;;;;;;5009372;28;20136;-78
2023/06/26 13:29:26;;;;;;;4.72;4.10;;;;;;;;;;5010643;28;20127;-80
2023/06/26 13:31:51;;;;;;;4.68;4.25;;;;;;;;;;5019910;28;20040;-78
2023/06/26 13:34:27;;;;;;;4.93;4.20;;;;;;;;;;5021563;28;20037;-79
2023/06/26 13:36:53;;;;;;;5.65;4.10;;;;;;;;;;5003265;28;21551;-77
2023/06/26 13:39:18;;;;;;;4.95;4.18;;;;;;;;;;5008124;28;20123;-77
2023/06/26 13:41:45;;;;;;;6.93;4.68;;;;;;;;;;5004223;28;20041;-79
2023/06/26 13:44:47;;;;;;;6.70;4.78;;;;;;;;;;5026466;28;20029;-81
2023/06/26 13:47:16;;;;;;;5.55;4.57;;;;;;;;;;5008267;28;20033;-79
2023/06/26 13:49:43;;;;;;;5.30;4.65;;;;;;;;;;5009352;28;20043;-80
2023/06/26 13:52:09;;;;;;;6.57;4.50;;;;;;;;;;5017698;28;20045;-78
2023/06/26 13:54:36;;;;;;;7.55;5.15;;;;;;;;;;5035442;28;20048;-78
2023/06/26 13:57:02;;;;;;;6.40;5.07;;;;;;;;;;5002773;28;20110;-79
2023/06/26 13:59:28;;;;;;;6.93;4.70;;;;;;;;;;5016635;28;20030;-77
2023/06/26 14:01:55;;;;;;;6.53;4.50;;;;;;;;;;5021427;28;20029;-83
2023/06/26 14:04:21;;;;;;;5.57;5.00;;;;;;;;;;5012047;28;20029;-79
2023/06/26 14:06:46;;;;;;;9.85;4.65;;;;;;;;;;5017197;28;20417;-77
2023/06/26 14:09:12;;;;;;;6.43;5.05;;;;;;;;;;5021315;28;20021;-80
2023/06/26 14:11:39;;;;;;;8.07;5.28;;;;;;;;;;5030073;28;20113;-80
2023/06/26 14:14:16;;;;;;;5.80;4.82;;;;;;;;;;5031664;28;20029;-79
2023/06/26 14:16:48;;;;;;;5.78;4.78;;;;;;;;;;5029461;28;20038;-82
2023/06/26 14:19:15;;;;;;;10.45;5.30;;;;;;;;;;5010212;28;20041;-80
2023/06/26 14:21:41;;;;;;;5.57;4.97;;;;;;;;;;5014137;28;20026;-78
2023/06/26 14:24:07;;;;;;;7.38;4.35;;;;;;;;;;5004652;28;20113;-80
2023/06/26 14:26:33;;;;;;;7.32;4.90;;;;;;;;;;5021681;28;20116;-80
2023/06/26 14:28:59;;;;;;;14.57;4.93;;;;;;;;;;5003443;28;20047;-78
2023/06/26 14:31:25;;;;;;;7.97;5.43;;;;;;;;;;5014740;28;20556;-79
2023/06/26 14:33:51;;;;;;;6.38;4.50;;;;;;;;;;5021484;28;20393;-79
2023/06/26 14:36:17;;;;;;;14.40;5.43;;;;;;;;;;5019339;28;20037;-81
2023/06/26 14:38:42;;;;;;;6.22;5.07;;;;;;;;;;5014854;28;20426;-79
2023/06/26 14:41:08;;;;;;;7.40;4.40;;;;;;;;;;5035416;28;20116;-80
2023/06/26 14:43:33;;;;;;;5.18;4.57;;;;;;;;;;4999193;28;20029;-80
2023/06/26 14:45:59;;;;;;;6.88;4.68;;;;;;;;;;5000981;28;20013;-81
2023/06/26 14:48:28;;;;;;;5.05;3.95;;;;;;;;;;5018821;28;20040;-79
2023/06/26 14:50:54;;;;;;;6.72;4.28;;;;;;;;;;5013846;28;20048;-79
2023/06/26 14:53:19;;;;;;;7.43;4.88;;;;;;;;;;5028838;28;20524;-79
2023/06/26 14:55:46;;;;;;;6.18;4.32;;;;;;;;;;5012387;28;20021;-77
2023/06/26 14:58:12;;;;;;;5.88;4.55;;;;;;;;;;5029526;28;20482;-82
2023/06/26 15:00:37;;;;;;;5.78;4.70;;;;;;;;;;5027194;28;20029;-80
2023/06/26 15:03:03;;;;;;;6.43;4.30;;;;;;;;;;5032338;28;20028;-79
2023/06/26 15:05:29;;;;;;;4.80;4.28;;;;;;;;;;5019244;28;20509;-80
2023/06/26 15:07:55;;;;;;;6.88;4.60;;;;;;;;;;5030588;28;20025;-76
2023/06/26 15:10:21;;;;;;;8.57;4.50;;;;;;;;;;5037403;28;20033;-79
2023/06/26 15:12:47;;;;;;;5.95;4.90;;;;;;;;;;5034458;28;20417;-78
2023/06/26 15:15:13;;;;;;;9.88;5.03;;;;;;;;;;5052614;28;20029;-80
2023/06/26 15:17:39;;;;;;;5.65;4.55;;;;;;;;;;5038072;28;20029;-79
2023/06/26 15:20:05;;;;;;;6.25;4.72;;;;;;;;;;5036485;28;20062;-78
2023/06/26 15:22:31;;;;;;;8.93;5.35;;;;;;;;;;5036272;28;20033;-78
2023/06/26 15:24:56;;;;;;;6.20;4.28;;;;;;;;;;5034345;28;20435;-80
2023/06/26 15:27:22;;;;;;;6.22;4.82;;;;;;;;;;5032716;28;20029;-79
2023/06/26 15:29:47;;;;;;;5.05;4.30;;;;;;;;;;5016656;28;20142;-79
2023/06/26 15:32:13;;;;;;;5.80;4.95;;;;;;;;;;5016795;28;20029;-81
2023/06/26 15:34:38;;;;;;;6.10;4.45;;;;;;;;;;5033715;28;20022;-78
2023/06/26 15:37:05;;;;;;;6.10;4.40;;;;;;;;;;5033506;28;20029;-79
2023/06/26 15:39:31;;;;;;;7.05;4.35;;;;;;;;;;5034193;28;20096;-77
2023/06/26 15:41:56;;;;;;;6.13;4.70;;;;;;;;;;5032415;28;20120;-79
2023/06/26 15:44:22;;;;;;;6.30;4.47;;;;;;;;;;5047452;28;20048;-78
2023/06/26 15:46:47;;;;;;;5.20;4.57;;;;;;;;;;5053926;28;20071;-80
2023/06/26 15:49:13;;;;;;;7.13;4.93;;;;;;;;;;5033247;28;20124;-80
2023/06/26 15:51:38;;;;;;;5.55;4.43;;;;;;;;;;5016811;28;20447;-79
2023/06/26 15:54:05;;;;;;;8.50;4.88;;;;;;;;;;5027196;28;20071;-81
2023/06/26 15:56:30;;;;;;;6.15;4.72;;;;;;;;;;5053862;28;20025;-78
2023/06/26 15:58:56;;;;;;;8.77;5.20;;;;;;;;;;5043850;28;20049;-77
2023/06/26 16:01:21;;;;;;;8.50;4.70;;;;;;;;;;5015255;28;20064;-78
2023/06/26 16:03:47;;;;;;;7.43;4.88;;;;;;;;;;5015680;28;20516;-78
2023/06/26 16:06:13;;;;;;;7.43;4.50;;;;;;;;;;5015171;28;20424;-78
2023/06/26 16:08:40;;;;;;;10.40;4.82;;;;;;;;;;5021657;28;20029;-77
2023/06/26 16:11:08;;;;;;;6.88;4.45;;;;;;;;;;5053313;28;20016;-78
2023/06/26 16:13:34;;;;;;;4.90;4.40;;;;;;;;;;5035135;28;20028;-80
2023/06/26 16:15:59;;;;;;;5.93;4.38;;;;;;;;;;5053695;28;20108;-76
2023/06/26 16:18:26;;;;;;;10.60;5.03;;;;;;;;;;5028729;28;20387;-77
2023/06/26 16:20:53;;;;;;;8.40;5.30;;;;;;;;;;5052524;28;20103;-79
2023/06/26 16:23:18;;;;;;;5.22;4.68;;;;;;;;;;5034408;28;20036;-80
2023/06/26 16:25:46;;;;;;;12.20;4.35;;;;;;;;;;5034983;28;20024;-78
2023/06/26 16:28:12;;;;;;;5.93;5.00;;;;;;;;;;5032594;28;20155;-77
2023/06/26 16:30:38;;;;;;;5.28;4.50;;;;;;;;;;5032186;28;20111;-78
2023/06/26 16:33:04;;;;;;;10.70;5.00;;;;;;;;;;5030796;28;20466;-77
2023/06/26 16:35:30;;;;;;;6.13;4.82;;;;;;;;;;5032696;28;20095;-78
2023/06/26 16:37:56;;;;;;;7.35;4.28;;;;;;;;;;5014731;28;20116;-77
2023/06/26 16:40:22;;;;;;;7.30;4.72;;;;;;;;;;5033832;28;20032;-79
2023/06/26 16:42:48;;;;;;;7.43;4.82;;;;;;;;;;5052231;28;20095;-79
2023/06/26 16:45:14;;;;;;;5.90;4.75;;;;;;;;;;5052363;28;20045;-77
2023/06/26 16:47:40;;;;;;;7.43;4.97;;;;;;;;;;5051316;28;20680;-78
2023/06/26 16:50:06;;;;;;;10.75;4.93;;;;;;;;;;5032578;28;20030;-78
2023/06/26 16:52:31;;;;;;;7.60;5.20;;;;;;;;;;5031707;28;20029;-78
2023/06/26 16:54:57;;;;;;;6.63;4.75;;;;;;;;;;5047369;28;20111;-78
2023/06/26 16:57:23;;;;;;;5.80;4.68;;;;;;;;;;5051619;28;20037;-79
2023/06/26 16:59:48;;;;;;;7.43;5.18;;;;;;;;;;5050667;28;20501;-78
2023/06/26 17:02:14;;;;;;;7.68;5.50;;;;;;;;;;5034298;28;20033;-77
2023/06/26 17:04:41;;;;;;;8.02;5.40;;;;;;;;;;5047187;28;20036;-80
2023/06/26 17:07:06;;;;;;;7.95;5.00;;;;;;;;;;5033502;28;20061;-78
2023/06/26 17:09:32;;;;;;;9.50;5.95;;;;;;;;;;5040809;28;20459;-78
2023/06/26 17:11:57;;;;;;;8.23;4.85;;;;;;;;;;5013705;28;20449;-77